createdAt,value
2023-05-14T00:01:19.806Z,98711.81
2023-05-14T00:03:48.216Z,98710.13
2023-05-14T00:06:17.007Z,98707.44
2023-05-14T00:08:45.419Z,98699.38
2023-05-14T00:11:14.045Z,98712.81
2023-05-14T00:13:42.535Z,98697.72
2023-05-14T00:16:12.826Z,98703.09
2023-05-14T00:18:41.501Z,98700.41
2023-05-14T00:21:09.925Z,98706.63
2023-05-14T00:23:38.519Z,98696.00
2023-05-14T00:26:06.903Z,98699.72
2023-05-14T00:28:35.434Z,98701.38
2023-05-14T00:31:04.075Z,98697.03
2023-05-14T00:33:33.836Z,98688.13
2023-05-14T00:36:02.468Z,98691.66
2023-05-14T00:38:30.820Z,98696.19
2023-05-14T00:40:59.144Z,98690.81
2023-05-14T00:43:27.654Z,98690.81
2023-05-14T00:45:59.034Z,98689.97
2023-05-14T00:48:27.699Z,98687.28
2023-05-14T00:50:57.416Z,98685.59
2023-05-14T00:53:26.293Z,98697.19
2023-05-14T00:55:54.687Z,98692.84
2023-05-14T00:58:23.055Z,98695.53
2023-05-14T01:00:52.257Z,98694.69
2023-05-14T01:03:20.813Z,98703.59
2023-05-14T01:05:58.637Z,98700.06
2023-05-14T01:08:33.802Z,98700.06
2023-05-14T01:11:06.436Z,98703.75
2023-05-14T01:13:40.120Z,98704.63
2023-05-14T01:16:09.091Z,98703.75
2023-05-14T01:18:37.560Z,98702.91
2023-05-14T01:21:08.224Z,98701.94
2023-05-14T01:23:38.180Z,98702.91
2023-05-14T01:26:06.779Z,98700.22
2023-05-14T01:28:35.342Z,98696.72
2023-05-14T01:31:06.460Z,98702.09
2023-05-14T01:33:35.284Z,98698.56
2023-05-14T01:36:03.664Z,98698.56
2023-05-14T01:38:34.333Z,98699.41
2023-05-14T01:41:04.582Z,98702.09
2023-05-14T01:43:33.291Z,98705.81
2023-05-14T01:46:01.654Z,98699.41
2023-05-14T01:48:30.353Z,98695.03
2023-05-14T01:50:58.934Z,98694.19
2023-05-14T01:53:27.327Z,98692.34
2023-05-14T01:55:55.936Z,98694.19
2023-05-14T01:58:25.780Z,98689.66
2023-05-14T02:00:54.187Z,98686.09
2023-05-14T02:03:22.984Z,98685.13
2023-05-14T02:05:51.392Z,98682.56
2023-05-14T02:08:19.993Z,98682.56
2023-05-14T02:10:48.385Z,98678.03
2023-05-14T02:13:17.857Z,98678.91
2023-05-14T02:15:47.661Z,98675.34
2023-05-14T02:18:16.250Z,98679.72
2023-05-14T02:20:44.717Z,98676.22
2023-05-14T02:23:13.049Z,98682.41
2023-05-14T02:25:41.564Z,98683.41
2023-05-14T02:28:10.087Z,98686.78
2023-05-14T02:30:38.721Z,98682.41
2023-05-14T02:33:08.681Z,98685.13
2023-05-14T02:35:37.480Z,98680.56
2023-05-14T02:38:09.089Z,98673.50
2023-05-14T02:40:38.663Z,98670.81
2023-05-14T02:43:07.325Z,98668.13
2023-05-14T02:45:35.730Z,98668.13
2023-05-14T02:48:04.223Z,98672.50
2023-05-14T02:50:34.178Z,98660.91
2023-05-14T02:53:02.850Z,98667.09
2023-05-14T02:55:31.531Z,98664.56
2023-05-14T02:57:59.894Z,98661.06
2023-05-14T03:00:28.277Z,98664.56
2023-05-14T03:02:57.261Z,98661.06
2023-05-14T03:05:26.332Z,98660.06
2023-05-14T03:07:56.180Z,98655.66
2023-05-14T03:10:24.809Z,98655.66
2023-05-14T03:12:53.965Z,98650.28
2023-05-14T03:15:22.376Z,98651.13
2023-05-14T03:17:50.985Z,98644.91
2023-05-14T03:20:19.927Z,98647.59
2023-05-14T03:22:48.335Z,98639.72
2023-05-14T03:25:19.001Z,98637.88
2023-05-14T03:27:47.437Z,98640.56
2023-05-14T03:30:17.565Z,98645.94
2023-05-14T03:32:46.126Z,98641.56
2023-05-14T03:35:14.666Z,98637.03
2023-05-14T03:37:43.217Z,98646.97
2023-05-14T03:40:12.689Z,98639.88
2023-05-14T03:42:42.438Z,98639.88
2023-05-14T03:45:11.936Z,98635.34
2023-05-14T03:47:40.354Z,98635.34
2023-05-14T03:50:10.613Z,98629.97
2023-05-14T03:52:39.173Z,98631.81
2023-05-14T03:55:08.715Z,98627.25
2023-05-14T03:57:37.245Z,98632.66
2023-05-14T04:00:08.890Z,98628.25
2023-05-14T04:02:37.393Z,98637.19
2023-05-14T04:05:06.422Z,98636.31
2023-05-14T04:07:34.784Z,98643.41
2023-05-14T04:10:04.712Z,98634.50
2023-05-14T04:12:33.259Z,98630.81
2023-05-14T04:15:02.345Z,98635.34
2023-05-14T04:17:33.006Z,98635.34
2023-05-14T04:20:02.587Z,98634.50
2023-05-14T04:22:31.260Z,98639.88
2023-05-14T04:24:59.632Z,98636.19
2023-05-14T04:27:28.224Z,98632.81
2023-05-14T04:29:56.811Z,98635.50
2023-05-14T04:32:25.979Z,98634.50
2023-05-14T04:34:56.077Z,98638.03
2023-05-14T04:37:24.431Z,98629.97
2023-05-14T04:39:52.993Z,98626.44
2023-05-14T04:42:21.339Z,98638.03
2023-05-14T04:44:49.874Z,98641.56
2023-05-14T04:47:18.295Z,98632.66
2023-05-14T04:49:46.691Z,98642.41
2023-05-14T04:52:16.525Z,98634.34
2023-05-14T04:54:45.029Z,98629.78
2023-05-14T04:57:13.890Z,98631.66
2023-05-14T04:59:42.300Z,98629.78
2023-05-14T05:02:10.853Z,98629.59
2023-05-14T05:04:39.757Z,98623.38
2023-05-14T05:07:08.211Z,98617.16
2023-05-14T05:09:38.194Z,98628.75
2023-05-14T05:12:07.970Z,98630.47
2023-05-14T05:14:36.316Z,98625.91
2023-05-14T05:17:04.914Z,98621.38
2023-05-14T05:19:43.067Z,98623.03
2023-05-14T05:22:12.683Z,98631.09
2023-05-14T05:24:42.558Z,98621.38
2023-05-14T05:27:10.879Z,98626.75
2023-05-14T05:29:39.513Z,98619.34
2023-05-14T05:32:09.111Z,98620.19
2023-05-14T05:34:37.802Z,98618.31
2023-05-14T05:37:06.428Z,98614.81
2023-05-14T05:39:35.303Z,98614.81
2023-05-14T05:42:07.179Z,98611.94
2023-05-14T05:44:35.625Z,98617.31
2023-05-14T05:47:04.397Z,98617.31
2023-05-14T05:49:33.009Z,98618.16
2023-05-14T05:52:01.392Z,98616.31
2023-05-14T05:54:29.943Z,98619.00
2023-05-14T05:56:58.425Z,98622.34
2023-05-14T05:59:28.418Z,98619.66
2023-05-14T06:01:56.830Z,98622.34
2023-05-14T06:04:25.336Z,98615.94
2023-05-14T06:06:53.920Z,98621.34
2023-05-14T06:09:22.323Z,98618.63
2023-05-14T06:11:51.042Z,98614.91
2023-05-14T06:14:19.383Z,98614.91
2023-05-14T06:16:49.186Z,98605.84
2023-05-14T06:19:18.078Z,98605.84
2023-05-14T06:21:46.598Z,98596.94
2023-05-14T06:24:15.161Z,98605.84
2023-05-14T06:26:43.536Z,98601.97
2023-05-14T06:29:12.081Z,98603.28
2023-05-14T06:31:40.697Z,98607.69
2023-05-14T06:34:10.741Z,98601.09
2023-05-14T06:36:39.237Z,98604.16
2023-05-14T06:39:07.613Z,98602.28
2023-05-14T06:41:36.032Z,98593.19
2023-05-14T06:44:04.932Z,98594.84
2023-05-14T06:46:33.307Z,98594.84
2023-05-14T06:49:01.821Z,98595.72
2023-05-14T06:51:32.640Z,98601.94
2023-05-14T06:54:00.997Z,98606.47
2023-05-14T06:56:29.568Z,98600.22
2023-05-14T06:58:57.972Z,98596.34
2023-05-14T07:01:27.141Z,98599.56
2023-05-14T07:03:55.568Z,98588.59
2023-05-14T07:06:24.095Z,98588.78
2023-05-14T07:08:53.926Z,98582.38
2023-05-14T07:11:23.181Z,98578.84
2023-05-14T07:13:51.860Z,98585.91
2023-05-14T07:16:20.252Z,98599.19
2023-05-14T07:18:48.656Z,98596.31
2023-05-14T07:21:17.188Z,98595.66
2023-05-14T07:23:45.763Z,98598.16
2023-05-14T07:26:15.886Z,98604.38
2023-05-14T07:28:44.211Z,98606.25
2023-05-14T07:31:12.889Z,98608.78
2023-05-14T07:33:41.365Z,98611.25
2023-05-14T07:36:10.121Z,98597.66
2023-05-14T07:38:38.684Z,98603.03
2023-05-14T07:41:07.876Z,98609.09
2023-05-14T07:43:39.001Z,98616.97
2023-05-14T07:46:07.671Z,98607.06
2023-05-14T07:48:36.240Z,98600.66
2023-05-14T07:51:04.968Z,98605.56
2023-05-14T07:53:33.285Z,98593.41
2023-05-14T07:56:02.023Z,98586.00
2023-05-14T07:58:30.446Z,98587.66
2023-05-14T08:01:01.542Z,98584.78
2023-05-14T08:03:30.203Z,98574.03
2023-05-14T08:05:58.632Z,98574.69
2023-05-14T08:08:27.645Z,98569.31
2023-05-14T08:10:56.104Z,98563.94
2023-05-14T08:13:24.843Z,98563.72
2023-05-14T08:15:53.289Z,98563.56
2023-05-14T08:18:23.065Z,98562.06
2023-05-14T08:20:51.644Z,98561.03
2023-05-14T08:23:20.191Z,98545.72
2023-05-14T08:25:48.668Z,98543.22
2023-05-14T08:28:17.042Z,98534.09
2023-05-14T08:30:45.956Z,98534.78
2023-05-14T08:33:14.564Z,98538.28
2023-05-14T08:35:44.370Z,98534.56
2023-05-14T08:38:12.708Z,98532.91
2023-05-14T08:40:41.069Z,98527.88
2023-05-14T08:43:09.662Z,98526.69
2023-05-14T08:45:38.126Z,98534.78
2023-05-14T08:48:08.911Z,98517.78
2023-05-14T08:50:37.647Z,98522.97
2023-05-14T08:53:07.427Z,98518.25
2023-05-14T08:55:36.119Z,98518.09
2023-05-14T08:58:04.517Z,98517.41
2023-05-14T09:00:33.087Z,98513.03
2023-05-14T09:03:01.589Z,98515.56
2023-05-14T09:05:30.046Z,98499.41
2023-05-14T09:07:58.550Z,98504.78
2023-05-14T09:10:28.434Z,98495.22
2023-05-14T09:12:56.787Z,98499.09
2023-05-14T09:15:25.226Z,98506.66
2023-05-14T09:17:53.611Z,98507.66
2023-05-14T09:20:22.909Z,98494.84
2023-05-14T09:22:54.744Z,98506.66
2023-05-14T09:25:29.108Z,98494.00
2023-05-14T09:27:58.992Z,98494.00
2023-05-14T09:30:27.794Z,98496.88
2023-05-14T09:32:56.499Z,98497.75
2023-05-14T09:35:25.808Z,98499.22
2023-05-14T09:37:55.524Z,98495.22
2023-05-14T09:40:25.405Z,98491.50
2023-05-14T09:42:55.463Z,98491.50
2023-05-14T09:45:24.218Z,98494.19
2023-05-14T09:47:53.490Z,98491.50
2023-05-14T09:50:22.432Z,98489.16
2023-05-14T09:52:51.076Z,98480.25
2023-05-14T09:55:20.532Z,98479.88
2023-05-14T09:57:48.912Z,98472.63
2023-05-14T10:00:19.769Z,98470.97
2023-05-14T10:02:48.366Z,98463.94
2023-05-14T10:05:17.845Z,98466.25
2023-05-14T10:07:49.085Z,98469.59
2023-05-14T10:10:20.365Z,98467.56
2023-05-14T10:12:53.484Z,98461.03
2023-05-14T10:15:26.867Z,98447.56
2023-05-14T10:17:57.410Z,98444.72
2023-05-14T10:20:26.696Z,98445.72
2023-05-14T10:22:55.287Z,98435.81
2023-05-14T10:25:24.139Z,98430.22
2023-05-14T10:27:52.646Z,98436.94
2023-05-14T10:30:24.450Z,98431.53
2023-05-14T10:33:08.331Z,98436.94
2023-05-14T10:36:05.168Z,98424.84
2023-05-14T10:38:34.799Z,98419.81
2023-05-14T10:41:04.295Z,98408.00
2023-05-14T10:43:37.683Z,98411.56
2023-05-14T10:46:07.946Z,98410.38
2023-05-14T10:48:36.525Z,98413.22
2023-05-14T10:51:05.092Z,98408.69
2023-05-14T10:53:37.953Z,98400.59
2023-05-14T10:56:07.570Z,98391.69
2023-05-14T10:58:38.426Z,98404.97
2023-05-14T11:01:09.284Z,98407.00
2023-05-14T11:03:42.419Z,98404.97
2023-05-14T11:06:11.854Z,98402.09
2023-05-14T11:08:40.591Z,98405.81
2023-05-14T11:11:10.420Z,98395.03
2023-05-14T11:13:38.869Z,98396.91
2023-05-14T11:16:21.762Z,98399.78
2023-05-14T11:18:55.855Z,98393.56
2023-05-14T11:21:24.482Z,98389.00
2023-05-14T11:23:52.902Z,98381.56
2023-05-14T11:26:21.827Z,98381.94
2023-05-14T11:28:50.285Z,98382.56
2023-05-14T11:31:20.239Z,98386.13
2023-05-14T11:33:48.991Z,98388.81
2023-05-14T11:36:17.493Z,98394.22
2023-05-14T11:38:50.841Z,98395.03
2023-05-14T11:41:21.096Z,98383.44
2023-05-14T11:43:49.496Z,98385.28
2023-05-14T11:46:20.026Z,98376.19
2023-05-14T11:48:49.061Z,98370.59
2023-05-14T11:51:17.532Z,98373.50
2023-05-14T11:53:47.608Z,98368.94
2023-05-14T11:56:16.309Z,98365.22
2023-05-14T11:58:50.169Z,98369.78
2023-05-14T12:01:19.957Z,98355.31
2023-05-14T12:03:48.590Z,98362.53
2023-05-14T12:06:17.084Z,98348.72
2023-05-14T12:08:45.940Z,98346.38
2023-05-14T12:11:14.566Z,98345.75
2023-05-14T12:13:42.941Z,98341.66
2023-05-14T12:16:11.912Z,98342.84
2023-05-14T12:18:41.742Z,98341.84
2023-05-14T12:21:12.235Z,98339.16
2023-05-14T12:23:40.753Z,98328.38
2023-05-14T12:26:10.345Z,98329.88
2023-05-14T12:28:43.492Z,98327.44
2023-05-14T12:31:12.371Z,98314.81
2023-05-14T12:33:42.218Z,98311.94
2023-05-14T12:36:21.167Z,98302.56
2023-05-14T12:38:50.489Z,98305.25
2023-05-14T12:41:19.101Z,98313.72
2023-05-14T12:43:48.598Z,98300.25
2023-05-14T12:46:17.323Z,98301.06
2023-05-14T12:48:47.319Z,98295.69
2023-05-14T12:51:15.870Z,98295.84
2023-05-14T12:53:44.575Z,98283.44
2023-05-14T12:56:13.108Z,98288.00
2023-05-14T12:58:41.787Z,98289.19
2023-05-14T13:01:10.631Z,98277.38
2023-05-14T13:03:39.297Z,98281.94
2023-05-14T13:06:09.384Z,98275.53
2023-05-14T13:08:38.079Z,98270.34
2023-05-14T13:11:06.769Z,98264.31
2023-05-14T13:13:35.121Z,98264.09
2023-05-14T13:16:03.746Z,98267.81
2023-05-14T13:18:32.272Z,98269.69
2023-05-14T13:21:00.713Z,98270.69
2023-05-14T13:23:30.603Z,98263.66
2023-05-14T13:25:58.984Z,98267.38
2023-05-14T13:28:27.560Z,98266.34
2023-05-14T13:31:09.486Z,98256.59
2023-05-14T13:33:39.603Z,98236.06
2023-05-14T13:36:09.283Z,98247.50
2023-05-14T13:38:39.171Z,98228.84
2023-05-14T13:41:07.675Z,98229.69
2023-05-14T13:43:36.658Z,98223.47
2023-05-14T13:46:06.148Z,98227.00
2023-05-14T13:48:34.574Z,98220.56
2023-05-14T13:51:02.957Z,98227.16
2023-05-14T13:53:31.716Z,98214.53
2023-05-14T13:56:01.911Z,98202.09
2023-05-14T13:58:30.546Z,98191.34
2023-05-14T14:00:58.954Z,98183.25
2023-05-14T14:03:27.413Z,98184.09
2023-05-14T14:05:55.860Z,98186.13
2023-05-14T14:08:24.699Z,98190.28
2023-05-14T14:10:55.376Z,98187.44
2023-05-14T14:13:25.677Z,98180.19
2023-05-14T14:15:54.199Z,98176.09
2023-05-14T14:18:22.727Z,98167.00
2023-05-14T14:20:51.095Z,98159.75
2023-05-14T14:23:19.665Z,98157.25
2023-05-14T14:25:48.571Z,98156.88
2023-05-14T14:28:17.237Z,98161.88
2023-05-14T14:30:47.257Z,98156.09
2023-05-14T14:33:15.838Z,98149.06
2023-05-14T14:35:45.053Z,98156.09
2023-05-14T14:38:14.180Z,98149.88
2023-05-14T14:40:42.765Z,98151.38
2023-05-14T14:43:11.279Z,98145.72
2023-05-14T14:45:39.765Z,98133.53
2023-05-14T14:48:31.730Z,98131.41
2023-05-14T14:51:00.173Z,98118.41
2023-05-14T14:53:28.633Z,98126.31
2023-05-14T14:55:57.167Z,98123.78
2023-05-14T14:58:26.127Z,98105.75
2023-05-14T15:00:55.583Z,98106.81
2023-05-14T15:03:24.241Z,98097.69
2023-05-14T15:05:54.367Z,98097.25
2023-05-14T15:08:26.762Z,98097.69
2023-05-14T15:10:55.500Z,98098.50
2023-05-14T15:13:24.890Z,98086.91
2023-05-14T15:15:53.402Z,98097.69
2023-05-14T15:18:21.861Z,98089.81
2023-05-14T15:20:50.871Z,98094.16
2023-05-14T15:23:20.675Z,98095.19
2023-05-14T15:25:49.718Z,98098.91
2023-05-14T15:28:18.326Z,98105.13
2023-05-14T15:30:48.436Z,98096.19
2023-05-14T15:33:19.340Z,98099.72
2023-05-14T15:35:48.118Z,98088.13
2023-05-14T15:38:16.811Z,98087.28
2023-05-14T15:40:46.655Z,98085.66
2023-05-14T15:43:15.158Z,98085.66
2023-05-14T15:45:45.708Z,98085.66
2023-05-14T15:48:14.209Z,98080.44
2023-05-14T15:50:42.988Z,98081.47
2023-05-14T15:53:11.381Z,98084.16
2023-05-14T15:55:39.851Z,98078.13
2023-05-14T15:58:10.037Z,98071.09
2023-05-14T16:00:38.405Z,98064.03
2023-05-14T16:03:07.387Z,98054.94
2023-05-14T16:05:36.582Z,98044.78
2023-05-14T16:08:05.447Z,98048.50
2023-05-14T16:10:34.053Z,98042.47
2023-05-14T16:13:02.459Z,98036.25
2023-05-14T16:15:32.421Z,98052.03
2023-05-14T16:18:01.659Z,98044.34
2023-05-14T16:20:30.343Z,98050.94
2023-05-14T16:22:58.732Z,98043.06
2023-05-14T16:25:27.431Z,98035.81
2023-05-14T16:27:56.165Z,98049.28
2023-05-14T16:30:24.780Z,98033.97
2023-05-14T16:32:55.123Z,98037.75
2023-05-14T16:35:23.596Z,98045.00
2023-05-14T16:37:52.101Z,98043.50
2023-05-14T16:40:21.956Z,98040.19
2023-05-14T16:42:51.169Z,98040.00
2023-05-14T16:45:19.649Z,98037.31
2023-05-14T16:47:48.171Z,98041.47
2023-05-14T16:50:18.424Z,98033.41
2023-05-14T16:52:46.831Z,98037.09
2023-05-14T16:55:15.596Z,98031.72
2023-05-14T16:57:45.044Z,98034.41
2023-05-14T17:00:15.410Z,98030.88
2023-05-14T17:02:44.007Z,98039.59
2023-05-14T17:05:12.475Z,98034.22
2023-05-14T17:07:42.394Z,98028.00
2023-05-14T17:10:12.013Z,98037.56
2023-05-14T17:12:40.447Z,98032.78
2023-05-14T17:15:10.925Z,98022.22
2023-05-14T17:17:39.447Z,98023.06
2023-05-14T17:20:09.269Z,98019.78
2023-05-14T17:22:38.130Z,98019.78
2023-05-14T17:25:10.169Z,98011.06
2023-05-14T17:27:38.773Z,98005.69
2023-05-14T17:30:09.321Z,98012.72
2023-05-14T17:32:38.156Z,98008.38
2023-05-14T17:35:09.775Z,98005.69
2023-05-14T17:37:38.177Z,98008.56
2023-05-14T17:40:10.134Z,98008.38
2023-05-14T17:42:38.556Z,98016.47
2023-05-14T17:45:08.966Z,98013.75
2023-05-14T17:47:37.733Z,98001.13
2023-05-14T17:50:07.776Z,98017.09
2023-05-14T17:52:36.899Z,98014.41
2023-05-14T17:55:07.592Z,98015.41
2023-05-14T17:57:36.076Z,98037.59
2023-05-14T18:00:05.152Z,98028.69
2023-05-14T18:02:33.605Z,98045.50
2023-05-14T18:05:03.361Z,98035.97
2023-05-14T18:07:31.845Z,98041.53
2023-05-14T18:10:00.414Z,98040.47
2023-05-14T18:12:30.431Z,98050.81
2023-05-14T18:14:58.914Z,98040.31
2023-05-14T18:17:27.780Z,98057.09
2023-05-14T18:19:56.216Z,98063.31
2023-05-14T18:22:24.846Z,98069.09
2023-05-14T18:24:53.566Z,98071.56
2023-05-14T18:27:22.046Z,98066.59
2023-05-14T18:29:53.495Z,98078.41
2023-05-14T18:32:22.259Z,98072.34
2023-05-14T18:34:51.059Z,98071.72
2023-05-14T18:37:19.618Z,98065.72
2023-05-14T18:39:48.169Z,98061.53
2023-05-14T18:42:16.887Z,98052.81
2023-05-14T18:44:45.355Z,98052.59
2023-05-14T18:47:15.605Z,98049.91
2023-05-14T18:49:44.112Z,98054.47
2023-05-14T18:52:12.637Z,98046.84
2023-05-14T18:54:41.089Z,98056.97
2023-05-14T18:57:09.470Z,98052.03
2023-05-14T18:59:38.020Z,98048.25
2023-05-14T19:02:06.862Z,98050.75
2023-05-14T19:04:50.555Z,98053.63
2023-05-14T19:07:20.100Z,98049.72
2023-05-14T19:09:48.675Z,98059.66
2023-05-14T19:12:17.335Z,98060.50
2023-05-14T19:14:45.854Z,98066.06
2023-05-14T19:17:14.279Z,98060.50
2023-05-14T19:19:44.127Z,98059.84
2023-05-14T19:22:12.768Z,98057.97
2023-05-14T19:24:41.276Z,98054.28
2023-05-14T19:27:10.145Z,98054.06
2023-05-14T19:29:38.702Z,98055.75
2023-05-14T19:32:09.166Z,98070.88
2023-05-14T19:34:37.875Z,98072.91
2023-05-14T19:37:07.949Z,98069.41
2023-05-14T19:39:36.694Z,98072.75
2023-05-14T19:42:05.465Z,98072.75
2023-05-14T19:44:34.048Z,98082.69
2023-05-14T19:47:02.543Z,98083.50
2023-05-14T19:49:31.087Z,98091.59
2023-05-14T19:51:59.508Z,98089.72
2023-05-14T19:54:29.468Z,98093.47
2023-05-14T19:56:57.872Z,98097.16
2023-05-14T19:59:26.590Z,98089.94
2023-05-14T20:01:55.120Z,98084.72
2023-05-14T20:04:23.557Z,98081.00
2023-05-14T20:06:52.787Z,98084.56
2023-05-14T20:09:21.255Z,98085.38
2023-05-14T20:11:51.249Z,98077.31
2023-05-14T20:14:19.706Z,98059.47
2023-05-14T20:16:50.828Z,98054.94
2023-05-14T20:19:21.435Z,98054.94
2023-05-14T20:21:49.978Z,98047.88
2023-05-14T20:24:18.507Z,98039.78
2023-05-14T20:26:46.879Z,98035.22
2023-05-14T20:29:16.927Z,98030.88
2023-05-14T20:31:45.375Z,98022.63
2023-05-14T20:34:13.799Z,98017.25
2023-05-14T20:36:42.574Z,98009.78
2023-05-14T20:39:11.826Z,98007.28
2023-05-14T20:41:40.260Z,97993.00
2023-05-14T20:44:08.749Z,97986.75
2023-05-14T20:46:38.930Z,97976.84
2023-05-14T20:49:07.462Z,97965.44
2023-05-14T20:51:35.908Z,97950.09
2023-05-14T20:54:04.374Z,97940.16
2023-05-14T20:56:32.813Z,97925.69
2023-05-14T20:59:01.459Z,97907.69
2023-05-14T21:01:30.026Z,97909.53
2023-05-14T21:04:00.079Z,97904.97
2023-05-14T21:06:28.635Z,97893.38
2023-05-14T21:08:57.235Z,97881.56
2023-05-14T21:11:25.706Z,97862.72
2023-05-14T21:13:54.454Z,97874.31
2023-05-14T21:16:23.233Z,97863.78
2023-05-14T21:18:51.806Z,97862.72
2023-05-14T21:21:21.720Z,97860.03
2023-05-14T21:23:50.492Z,97866.47
2023-05-14T21:26:19.036Z,97858.38
2023-05-14T21:28:47.488Z,97866.47
2023-05-14T21:31:16.149Z,97862.72
2023-05-14T21:33:44.635Z,97859.00
2023-05-14T21:36:13.029Z,97854.66
2023-05-14T21:38:42.941Z,97853.59
2023-05-14T21:41:11.475Z,97849.28
2023-05-14T21:43:40.743Z,97846.97
2023-05-14T21:46:09.214Z,97845.94
2023-05-14T21:48:37.783Z,97848.63
2023-05-14T21:51:07.599Z,97844.06
2023-05-14T21:53:35.981Z,97827.31
2023-05-14T21:56:08.387Z,97828.13
2023-05-14T21:58:37.220Z,97815.50
2023-05-14T22:01:05.846Z,97807.41
2023-05-14T22:03:34.528Z,97796.47
2023-05-14T22:06:02.997Z,97804.72
2023-05-14T22:08:32.394Z,97801.00
2023-05-14T22:11:00.768Z,97792.91
2023-05-14T22:13:30.793Z,97791.25
2023-05-14T22:16:11.660Z,97795.81
2023-05-14T22:18:41.149Z,97795.00
2023-05-14T22:21:09.653Z,97796.66
2023-05-14T22:23:38.115Z,97782.34
2023-05-14T22:26:06.777Z,97777.97
2023-05-14T22:28:39.839Z,97772.59
2023-05-14T22:31:08.606Z,97768.91
2023-05-14T22:33:37.409Z,97758.31
2023-05-14T22:36:07.054Z,97761.84
2023-05-14T22:38:35.557Z,97761.84
2023-05-14T22:41:04.077Z,97769.91
2023-05-14T22:43:32.502Z,97768.25
2023-05-14T22:46:02.709Z,97772.81
2023-05-14T22:48:31.380Z,97772.00
2023-05-14T22:50:59.760Z,97767.44
2023-05-14T22:53:28.187Z,97766.59
2023-05-14T22:55:56.604Z,97761.22
2023-05-14T22:58:25.129Z,97756.03
2023-05-14T23:00:53.802Z,97747.94
2023-05-14T23:03:23.569Z,97740.91
2023-05-14T23:05:52.256Z,97725.59
2023-05-14T23:08:20.607Z,97704.06
2023-05-14T23:10:48.960Z,97710.47
2023-05-14T23:13:18.051Z,97715.00
2023-05-14T23:15:46.428Z,97717.69
2023-05-14T23:18:15.113Z,97706.94
2023-05-14T23:20:44.939Z,97697.03
2023-05-14T23:23:13.525Z,97693.69
2023-05-14T23:25:41.882Z,97682.91
2023-05-14T23:28:10.854Z,97696.38
2023-05-14T23:30:41.986Z,97688.31
2023-05-14T23:33:10.470Z,97686.63
2023-05-14T23:35:39.649Z,97685.78
2023-05-14T23:38:09.407Z,97692.00
2023-05-14T23:40:38.219Z,97686.63
2023-05-14T23:43:06.886Z,97687.66
2023-05-14T23:45:35.254Z,97688.50
2023-05-14T23:48:04.192Z,97678.56
2023-05-14T23:50:32.615Z,97674.22
2023-05-14T23:53:00.966Z,97674.22
2023-05-14T23:55:31.149Z,97659.72
2023-05-14T23:57:59.581Z,97651.63
